sensor_id;sensor_type;location;lat;lon;timestamp;P1;durP1;ratioP1;P2;durP2;ratioP2
7843;SDS011;3967;48.702;9.326;2023-06-22T00:01:21;7.37;;;6.47;;
7843;SDS011;3967;48.702;9.326;2023-06-22T00:03:51;6.33;;;5.73;;
7843;SDS011;3967;48.702;9.326;2023-06-22T00:06:17;6.13;;;5.57;;
7843;SDS011;3967;48.702;9.326;2023-06-22T00:08:44;7.50;;;6.27;;
7843;SDS011;3967;48.702;9.326;2023-06-22T00:11:11;8.97;;;6.20;;
7843;SDS011;3967;48.702;9.326;2023-06-22T00:13:38;6.90;;;6.20;;
7843;SDS011;3967;48.702;9.326;2023-06-22T00:16:05;6.20;;;5.70;;
7843;SDS011;3967;48.702;9.326;2023-06-22T00:18:32;8.00;;;6.23;;
7843;SDS011;3967;48.702;9.326;2023-06-22T00:20:59;8.50;;;6.07;;
7843;SDS011;3967;48.702;9.326;2023-06-22T00:23:26;9.10;;;6.53;;
7843;SDS011;3967;48.702;9.326;2023-06-22T00:25:53;6.73;;;6.13;;
7843;SDS011;3967;48.702;9.326;2023-06-22T00:28:20;7.50;;;6.23;;
7843;SDS011;3967;48.702;9.326;2023-06-22T00:30:48;8.27;;;6.47;;
7843;SDS011;3967;48.702;9.326;2023-06-22T00:33:15;7.03;;;6.30;;
7843;SDS011;3967;48.702;9.326;2023-06-22T00:35:43;9.30;;;6.60;;
7843;SDS011;3967;48.702;9.326;2023-06-22T00:38:10;7.43;;;6.67;;
7843;SDS011;3967;48.702;9.326;2023-06-22T00:40:37;7.23;;;6.00;;
7843;SDS011;3967;48.702;9.326;2023-06-22T00:43:04;7.00;;;6.40;;
7843;SDS011;3967;48.702;9.326;2023-06-22T00:45:32;6.70;;;5.73;;
7843;SDS011;3967;48.702;9.326;2023-06-22T00:47:59;7.23;;;6.53;;
7843;SDS011;3967;48.702;9.326;2023-06-22T00:50:27;7.43;;;6.73;;
7843;SDS011;3967;48.702;9.326;2023-06-22T00:53:01;6.87;;;6.33;;
7843;SDS011;3967;48.702;9.326;2023-06-22T00:55:35;6.10;;;5.50;;
7843;SDS011;3967;48.702;9.326;2023-06-22T00:58:13;8.40;;;6.90;;
7843;SDS011;3967;48.702;9.326;2023-06-22T01:00:40;6.87;;;6.17;;
7843;SDS011;3967;48.702;9.326;2023-06-22T01:03:07;8.97;;;6.70;;
7843;SDS011;3967;48.702;9.326;2023-06-22T01:05:36;7.17;;;6.17;;
7843;SDS011;3967;48.702;9.326;2023-06-22T01:15:51;8.97;;;7.13;;
7843;SDS011;3967;48.702;9.326;2023-06-22T01:18:23;7.40;;;6.13;;
7843;SDS011;3967;48.702;9.326;2023-06-22T01:20:53;7.90;;;6.13;;
7843;SDS011;3967;48.702;9.326;2023-06-22T01:23:38;6.97;;;5.73;;
7843;SDS011;3967;48.702;9.326;2023-06-22T01:26:19;5.90;;;5.30;;
7843;SDS011;3967;48.702;9.326;2023-06-22T01:28:54;6.93;;;5.37;;
7843;SDS011;3967;48.702;9.326;2023-06-22T01:31:23;6.80;;;5.53;;
7843;SDS011;3967;48.702;9.326;2023-06-22T01:33:56;10.83;;;5.60;;
7843;SDS011;3967;48.702;9.326;2023-06-22T01:36:29;10.57;;;6.60;;
7843;SDS011;3967;48.702;9.326;2023-06-22T01:38:57;7.17;;;5.50;;
7843;SDS011;3967;48.702;9.326;2023-06-22T01:41:25;6.80;;;5.53;;
7843;SDS011;3967;48.702;9.326;2023-06-22T01:43:53;6.10;;;5.60;;
7843;SDS011;3967;48.702;9.326;2023-06-22T01:46:21;8.53;;;5.47;;
7843;SDS011;3967;48.702;9.326;2023-06-22T01:48:49;6.67;;;6.13;;
7843;SDS011;3967;48.702;9.326;2023-06-22T01:51:16;7.07;;;5.80;;
7843;SDS011;3967;48.702;9.326;2023-06-22T01:53:43;7.37;;;5.40;;
7843;SDS011;3967;48.702;9.326;2023-06-22T01:56:10;5.80;;;5.00;;
7843;SDS011;3967;48.702;9.326;2023-06-22T01:58:49;5.83;;;5.23;;
7843;SDS011;3967;48.702;9.326;2023-06-22T02:01:24;6.90;;;5.93;;
7843;SDS011;3967;48.702;9.326;2023-06-22T02:04:05;7.03;;;4.93;;
7843;SDS011;3967;48.702;9.326;2023-06-22T02:06:37;7.37;;;5.13;;
7843;SDS011;3967;48.702;9.326;2023-06-22T02:09:09;5.97;;;5.00;;
7843;SDS011;3967;48.702;9.326;2023-06-22T02:11:41;8.00;;;6.70;;
7843;SDS011;3967;48.702;9.326;2023-06-22T02:14:10;7.07;;;6.13;;
7843;SDS011;3967;48.702;9.326;2023-06-22T02:16:39;6.40;;;5.67;;
7843;SDS011;3967;48.702;9.326;2023-06-22T02:19:06;6.70;;;5.63;;
7843;SDS011;3967;48.702;9.326;2023-06-22T02:21:34;6.33;;;5.73;;
7843;SDS011;3967;48.702;9.326;2023-06-22T02:24:01;7.17;;;6.07;;
7843;SDS011;3967;48.702;9.326;2023-06-22T02:26:28;7.07;;;6.00;;
7843;SDS011;3967;48.702;9.326;2023-06-22T02:28:55;6.93;;;6.23;;
7843;SDS011;3967;48.702;9.326;2023-06-22T02:31:21;7.83;;;6.03;;
7843;SDS011;3967;48.702;9.326;2023-06-22T02:33:48;6.00;;;5.50;;
7843;SDS011;3967;48.702;9.326;2023-06-22T02:36:16;5.40;;;4.90;;
7843;SDS011;3967;48.702;9.326;2023-06-22T02:38:43;6.03;;;5.47;;
7843;SDS011;3967;48.702;9.326;2023-06-22T02:41:15;7.00;;;6.30;;
7843;SDS011;3967;48.702;9.326;2023-06-22T02:43:45;5.57;;;5.07;;
7843;SDS011;3967;48.702;9.326;2023-06-22T02:46:12;7.60;;;6.10;;
7843;SDS011;3967;48.702;9.326;2023-06-22T02:48:40;6.90;;;6.30;;
7843;SDS011;3967;48.702;9.326;2023-06-22T02:51:07;9.33;;;6.27;;
7843;SDS011;3967;48.702;9.326;2023-06-22T02:53:34;7.40;;;6.20;;
7843;SDS011;3967;48.702;9.326;2023-06-22T02:56:01;6.07;;;5.43;;
7843;SDS011;3967;48.702;9.326;2023-06-22T02:58:31;6.10;;;5.50;;
7843;SDS011;3967;48.702;9.326;2023-06-22T03:01:05;5.83;;;5.33;;
7843;SDS011;3967;48.702;9.326;2023-06-22T03:03:32;8.07;;;5.67;;
7843;SDS011;3967;48.702;9.326;2023-06-22T03:05:59;7.17;;;6.37;;
7843;SDS011;3967;48.702;9.326;2023-06-22T03:08:27;6.60;;;5.90;;
7843;SDS011;3967;48.702;9.326;2023-06-22T03:10:55;5.70;;;5.20;;
7843;SDS011;3967;48.702;9.326;2023-06-22T03:13:22;5.73;;;5.23;;
7843;SDS011;3967;48.702;9.326;2023-06-22T03:15:49;7.57;;;5.87;;
7843;SDS011;3967;48.702;9.326;2023-06-22T03:18:16;7.00;;;5.63;;
7843;SDS011;3967;48.702;9.326;2023-06-22T03:20:43;6.97;;;6.13;;
7843;SDS011;3967;48.702;9.326;2023-06-22T03:23:09;7.13;;;5.97;;
7843;SDS011;3967;48.702;9.326;2023-06-22T03:25:36;10.10;;;7.10;;
7843;SDS011;3967;48.702;9.326;2023-06-22T03:28:03;8.57;;;7.17;;
7843;SDS011;3967;48.702;9.326;2023-06-22T03:30:30;6.97;;;6.37;;
7843;SDS011;3967;48.702;9.326;2023-06-22T03:32:57;7.30;;;6.60;;
7843;SDS011;3967;48.702;9.326;2023-06-22T03:35:24;8.20;;;7.40;;
7843;SDS011;3967;48.702;9.326;2023-06-22T03:37:50;7.33;;;6.63;;
7843;SDS011;3967;48.702;9.326;2023-06-22T03:40:17;8.10;;;6.80;;
7843;SDS011;3967;48.702;9.326;2023-06-22T03:42:44;7.53;;;6.83;;
7843;SDS011;3967;48.702;9.326;2023-06-22T03:45:11;9.63;;;6.37;;
7843;SDS011;3967;48.702;9.326;2023-06-22T03:47:38;9.20;;;6.57;;
7843;SDS011;3967;48.702;9.326;2023-06-22T03:50:05;7.23;;;6.53;;
7843;SDS011;3967;48.702;9.326;2023-06-22T03:52:32;6.67;;;6.03;;
7843;SDS011;3967;48.702;9.326;2023-06-22T03:54:59;7.43;;;6.50;;
7843;SDS011;3967;48.702;9.326;2023-06-22T03:57:25;6.37;;;5.73;;
7843;SDS011;3967;48.702;9.326;2023-06-22T03:59:54;6.97;;;6.07;;
7843;SDS011;3967;48.702;9.326;2023-06-22T04:02:22;6.90;;;6.20;;
7843;SDS011;3967;48.702;9.326;2023-06-22T04:04:49;7.20;;;6.50;;
7843;SDS011;3967;48.702;9.326;2023-06-22T04:07:16;6.70;;;6.10;;
7843;SDS011;3967;48.702;9.326;2023-06-22T04:09:44;7.27;;;6.27;;
7843;SDS011;3967;48.702;9.326;2023-06-22T04:12:10;7.73;;;6.33;;
7843;SDS011;3967;48.702;9.326;2023-06-22T04:14:37;7.40;;;5.90;;
7843;SDS011;3967;48.702;9.326;2023-06-22T04:17:04;6.83;;;6.17;;
7843;SDS011;3967;48.702;9.326;2023-06-22T04:19:31;6.63;;;6.00;;
7843;SDS011;3967;48.702;9.326;2023-06-22T04:21:58;7.20;;;6.53;;
7843;SDS011;3967;48.702;9.326;2023-06-22T04:24:25;8.50;;;7.30;;
7843;SDS011;3967;48.702;9.326;2023-06-22T04:26:51;9.53;;;6.43;;
7843;SDS011;3967;48.702;9.326;2023-06-22T04:29:21;7.17;;;6.37;;
7843;SDS011;3967;48.702;9.326;2023-06-22T04:31:55;6.63;;;5.80;;
7843;SDS011;3967;48.702;9.326;2023-06-22T04:34:24;7.27;;;6.00;;
7843;SDS011;3967;48.702;9.326;2023-06-22T04:36:52;7.80;;;6.93;;
7843;SDS011;3967;48.702;9.326;2023-06-22T04:39:19;7.00;;;5.83;;
7843;SDS011;3967;48.702;9.326;2023-06-22T04:41:46;6.13;;;5.53;;
7843;SDS011;3967;48.702;9.326;2023-06-22T04:44:13;6.27;;;5.50;;
7843;SDS011;3967;48.702;9.326;2023-06-22T04:46:51;7.17;;;5.57;;
7843;SDS011;3967;48.702;9.326;2023-06-22T04:49:26;6.30;;;5.70;;
7843;SDS011;3967;48.702;9.326;2023-06-22T04:52:04;5.60;;;5.10;;
7843;SDS011;3967;48.702;9.326;2023-06-22T04:54:33;7.43;;;6.00;;
7843;SDS011;3967;48.702;9.326;2023-06-22T04:57:01;7.93;;;6.10;;
7843;SDS011;3967;48.702;9.326;2023-06-22T04:59:29;7.20;;;5.13;;
7843;SDS011;3967;48.702;9.326;2023-06-22T05:01:58;6.47;;;5.70;;
7843;SDS011;3967;48.702;9.326;2023-06-22T05:04:26;6.00;;;5.20;;
7843;SDS011;3967;48.702;9.326;2023-06-22T05:06:54;5.70;;;5.13;;
7843;SDS011;3967;48.702;9.326;2023-06-22T05:09:21;7.97;;;5.87;;
7843;SDS011;3967;48.702;9.326;2023-06-22T05:11:48;7.37;;;5.83;;
7843;SDS011;3967;48.702;9.326;2023-06-22T05:14:15;6.20;;;5.60;;
7843;SDS011;3967;48.702;9.326;2023-06-22T05:16:42;5.67;;;5.13;;
7843;SDS011;3967;48.702;9.326;2023-06-22T05:19:09;8.87;;;6.17;;
7843;SDS011;3967;48.702;9.326;2023-06-22T05:21:36;5.90;;;5.30;;
7843;SDS011;3967;48.702;9.326;2023-06-22T05:24:03;6.90;;;5.73;;
7843;SDS011;3967;48.702;9.326;2023-06-22T05:26:31;6.47;;;5.50;;
7843;SDS011;3967;48.702;9.326;2023-06-22T05:29:00;6.57;;;5.63;;
7843;SDS011;3967;48.702;9.326;2023-06-22T05:31:28;6.63;;;4.90;;
7843;SDS011;3967;48.702;9.326;2023-06-22T05:33:55;6.20;;;5.03;;
7843;SDS011;3967;48.702;9.326;2023-06-22T05:36:22;9.53;;;5.90;;
7843;SDS011;3967;48.702;9.326;2023-06-22T05:38:52;6.27;;;5.67;;
7843;SDS011;3967;48.702;9.326;2023-06-22T05:41:19;7.03;;;5.67;;
7843;SDS011;3967;48.702;9.326;2023-06-22T05:43:46;7.00;;;5.57;;
7843;SDS011;3967;48.702;9.326;2023-06-22T05:46:13;5.43;;;4.90;;
7843;SDS011;3967;48.702;9.326;2023-06-22T05:48:40;5.83;;;5.33;;
7843;SDS011;3967;48.702;9.326;2023-06-22T05:51:06;7.63;;;5.07;;
7843;SDS011;3967;48.702;9.326;2023-06-22T05:53:33;5.47;;;4.60;;
7843;SDS011;3967;48.702;9.326;2023-06-22T05:56:00;6.77;;;4.73;;
7843;SDS011;3967;48.702;9.326;2023-06-22T05:58:27;6.93;;;4.30;;
7843;SDS011;3967;48.702;9.326;2023-06-22T06:00:53;6.27;;;4.73;;
7843;SDS011;3967;48.702;9.326;2023-06-22T06:03:20;5.97;;;5.07;;
7843;SDS011;3967;48.702;9.326;2023-06-22T06:05:47;5.07;;;3.60;;
7843;SDS011;3967;48.702;9.326;2023-06-22T06:08:14;4.70;;;4.30;;
7843;SDS011;3967;48.702;9.326;2023-06-22T06:10:40;5.93;;;4.20;;
7843;SDS011;3967;48.702;9.326;2023-06-22T06:13:07;6.27;;;4.20;;
7843;SDS011;3967;48.702;9.326;2023-06-22T06:15:34;4.73;;;3.93;;
7843;SDS011;3967;48.702;9.326;2023-06-22T06:18:01;4.73;;;4.13;;
7843;SDS011;3967;48.702;9.326;2023-06-22T06:20:31;4.23;;;3.83;;
7843;SDS011;3967;48.702;9.326;2023-06-22T06:22:59;4.88;;;4.07;;
7843;SDS011;3967;48.702;9.326;2023-06-22T06:25:26;9.38;;;4.88;;
7843;SDS011;3967;48.702;9.326;2023-06-22T06:27:53;5.45;;;3.90;;
7843;SDS011;3967;48.702;9.326;2023-06-22T06:30:21;4.80;;;3.55;;
7843;SDS011;3967;48.702;9.326;2023-06-22T06:32:49;8.38;;;3.90;;
7843;SDS011;3967;48.702;9.326;2023-06-22T06:35:16;6.60;;;4.38;;
7843;SDS011;3967;48.702;9.326;2023-06-22T06:37:44;4.55;;;3.75;;
7843;SDS011;3967;48.702;9.326;2023-06-22T06:40:14;4.40;;;3.83;;
7843;SDS011;3967;48.702;9.326;2023-06-22T06:42:42;8.15;;;3.78;;
7843;SDS011;3967;48.702;9.326;2023-06-22T06:45:12;4.85;;;3.70;;
7843;SDS011;3967;48.702;9.326;2023-06-22T06:47:42;6.18;;;3.97;;
7843;SDS011;3967;48.702;9.326;2023-06-22T06:50:09;4.05;;;3.45;;
7843;SDS011;3967;48.702;9.326;2023-06-22T06:52:36;6.57;;;3.70;;
7843;SDS011;3967;48.702;9.326;2023-06-22T06:55:04;4.22;;;3.13;;
7843;SDS011;3967;48.702;9.326;2023-06-22T06:57:35;3.88;;;2.90;;
7843;SDS011;3967;48.702;9.326;2023-06-22T07:00:07;4.70;;;3.40;;
7843;SDS011;3967;48.702;9.326;2023-06-22T07:02:38;3.58;;;3.25;;
7843;SDS011;3967;48.702;9.326;2023-06-22T07:05:09;5.30;;;3.67;;
7843;SDS011;3967;48.702;9.326;2023-06-22T07:07:37;4.72;;;2.88;;
7843;SDS011;3967;48.702;9.326;2023-06-22T07:10:05;9.63;;;3.50;;
7843;SDS011;3967;48.702;9.326;2023-06-22T07:12:32;5.63;;;3.58;;
7843;SDS011;3967;48.702;9.326;2023-06-22T07:15:06;5.72;;;3.47;;
7843;SDS011;3967;48.702;9.326;2023-06-22T07:17:35;4.07;;;2.97;;
7843;SDS011;3967;48.702;9.326;2023-06-22T07:20:02;6.88;;;3.42;;
7843;SDS011;3967;48.702;9.326;2023-06-22T07:22:36;7.43;;;3.40;;
7843;SDS011;3967;48.702;9.326;2023-06-22T07:25:07;5.15;;;3.00;;
7843;SDS011;3967;48.702;9.326;2023-06-22T07:27:56;4.55;;;3.10;;
7843;SDS011;3967;48.702;9.326;2023-06-22T07:30:23;3.38;;;3.08;;
7843;SDS011;3967;48.702;9.326;2023-06-22T07:32:50;5.53;;;4.10;;
7843;SDS011;3967;48.702;9.326;2023-06-22T07:35:17;6.10;;;3.78;;
7843;SDS011;3967;48.702;9.326;2023-06-22T07:37:43;6.43;;;3.50;;
7843;SDS011;3967;48.702;9.326;2023-06-22T07:40:10;4.47;;;3.65;;
7843;SDS011;3967;48.702;9.326;2023-06-22T07:42:38;7.05;;;3.75;;
7843;SDS011;3967;48.702;9.326;2023-06-22T07:45:05;4.20;;;3.17;;
7843;SDS011;3967;48.702;9.326;2023-06-22T07:47:34;7.57;;;3.25;;
7843;SDS011;3967;48.702;9.326;2023-06-22T07:50:02;5.45;;;3.40;;
7843;SDS011;3967;48.702;9.326;2023-06-22T07:52:29;5.57;;;3.55;;
7843;SDS011;3967;48.702;9.326;2023-06-22T07:54:57;8.80;;;4.22;;
7843;SDS011;3967;48.702;9.326;2023-06-22T07:57:24;6.60;;;3.55;;
7843;SDS011;3967;48.702;9.326;2023-06-22T08:00:05;6.60;;;3.70;;
7843;SDS011;3967;48.702;9.326;2023-06-22T08:02:42;4.35;;;3.72;;
7843;SDS011;3967;48.702;9.326;2023-06-22T08:05:10;5.97;;;3.72;;
7843;SDS011;3967;48.702;9.326;2023-06-22T08:07:47;5.78;;;3.33;;
7843;SDS011;3967;48.702;9.326;2023-06-22T08:10:15;4.05;;;3.30;;
7843;SDS011;3967;48.702;9.326;2023-06-22T08:12:43;6.45;;;3.80;;
7843;SDS011;3967;48.702;9.326;2023-06-22T08:15:10;7.68;;;3.80;;
7843;SDS011;3967;48.702;9.326;2023-06-22T08:17:40;11.38;;;4.50;;
7843;SDS011;3967;48.702;9.326;2023-06-22T08:20:07;8.43;;;3.78;;
7843;SDS011;3967;48.702;9.326;2023-06-22T08:22:39;8.02;;;4.38;;
7843;SDS011;3967;48.702;9.326;2023-06-22T08:25:06;4.40;;;3.85;;
7843;SDS011;3967;48.702;9.326;2023-06-22T08:27:34;8.57;;;3.88;;
7843;SDS011;3967;48.702;9.326;2023-06-22T08:30:02;6.75;;;4.22;;
7843;SDS011;3967;48.702;9.326;2023-06-22T08:32:29;5.43;;;4.35;;
7843;SDS011;3967;48.702;9.326;2023-06-22T08:34:56;7.50;;;3.67;;
7843;SDS011;3967;48.702;9.326;2023-06-22T08:37:23;4.63;;;3.60;;
7843;SDS011;3967;48.702;9.326;2023-06-22T08:39:58;8.30;;;3.72;;
7843;SDS011;3967;48.702;9.326;2023-06-22T08:42:25;6.60;;;3.47;;
7843;SDS011;3967;48.702;9.326;2023-06-22T08:44:52;7.10;;;3.38;;
7843;SDS011;3967;48.702;9.326;2023-06-22T08:47:20;13.60;;;3.80;;
7843;SDS011;3967;48.702;9.326;2023-06-22T08:49:47;6.25;;;3.47;;
7843;SDS011;3967;48.702;9.326;2023-06-22T08:52:14;8.18;;;3.53;;
7843;SDS011;3967;48.702;9.326;2023-06-22T08:54:41;9.13;;;4.18;;
7843;SDS011;3967;48.702;9.326;2023-06-22T08:57:08;5.15;;;3.72;;
7843;SDS011;3967;48.702;9.326;2023-06-22T08:59:36;8.15;;;4.65;;
7843;SDS011;3967;48.702;9.326;2023-06-22T09:02:02;7.60;;;4.07;;
7843;SDS011;3967;48.702;9.326;2023-06-22T09:04:29;5.32;;;3.53;;
7843;SDS011;3967;48.702;9.326;2023-06-22T09:07:01;6.32;;;4.40;;
7843;SDS011;3967;48.702;9.326;2023-06-22T09:09:28;4.97;;;3.88;;
7843;SDS011;3967;48.702;9.326;2023-06-22T09:11:55;5.88;;;3.90;;
7843;SDS011;3967;48.702;9.326;2023-06-22T09:14:22;6.80;;;4.15;;
7843;SDS011;3967;48.702;9.326;2023-06-22T09:16:49;7.25;;;4.32;;
7843;SDS011;3967;48.702;9.326;2023-06-22T09:19:16;5.95;;;4.10;;
7843;SDS011;3967;48.702;9.326;2023-06-22T09:21:42;10.32;;;4.82;;
7843;SDS011;3967;48.702;9.326;2023-06-22T09:24:09;11.98;;;4.50;;
7843;SDS011;3967;48.702;9.326;2023-06-22T09:26:36;10.20;;;4.22;;
7843;SDS011;3967;48.702;9.326;2023-06-22T09:29:04;7.32;;;4.43;;
7843;SDS011;3967;48.702;9.326;2023-06-22T09:31:32;9.95;;;4.60;;
7843;SDS011;3967;48.702;9.326;2023-06-22T09:33:58;7.60;;;4.22;;
7843;SDS011;3967;48.702;9.326;2023-06-22T09:36:25;5.50;;;4.15;;
7843;SDS011;3967;48.702;9.326;2023-06-22T09:38:52;6.55;;;5.18;;
7843;SDS011;3967;48.702;9.326;2023-06-22T09:41:21;9.88;;;4.95;;
7843;SDS011;3967;48.702;9.326;2023-06-22T09:43:49;12.60;;;4.68;;
7843;SDS011;3967;48.702;9.326;2023-06-22T09:46:16;7.35;;;4.38;;
7843;SDS011;3967;48.702;9.326;2023-06-22T09:48:43;6.90;;;5.25;;
7843;SDS011;3967;48.702;9.326;2023-06-22T09:51:09;8.48;;;4.50;;
7843;SDS011;3967;48.702;9.326;2023-06-22T09:53:38;8.15;;;4.50;;
7843;SDS011;3967;48.702;9.326;2023-06-22T09:56:04;7.47;;;5.40;;
7843;SDS011;3967;48.702;9.326;2023-06-22T09:58:32;9.20;;;5.07;;
7843;SDS011;3967;48.702;9.326;2023-06-22T10:00:59;7.57;;;4.50;;
7843;SDS011;3967;48.702;9.326;2023-06-22T10:03:26;8.75;;;4.10;;
7843;SDS011;3967;48.702;9.326;2023-06-22T10:05:53;5.90;;;4.03;;
7843;SDS011;3967;48.702;9.326;2023-06-22T10:08:19;8.07;;;4.90;;
7843;SDS011;3967;48.702;9.326;2023-06-22T10:10:46;6.25;;;5.15;;
7843;SDS011;3967;48.702;9.326;2023-06-22T10:13:13;7.88;;;4.93;;
7843;SDS011;3967;48.702;9.326;2023-06-22T10:15:41;8.60;;;5.53;;
7843;SDS011;3967;48.702;9.326;2023-06-22T10:18:08;7.20;;;4.70;;
7843;SDS011;3967;48.702;9.326;2023-06-22T10:20:35;11.18;;;4.57;;
7843;SDS011;3967;48.702;9.326;2023-06-22T10:23:02;9.55;;;5.00;;
7843;SDS011;3967;48.702;9.326;2023-06-22T10:25:29;6.88;;;4.95;;
7843;SDS011;3967;48.702;9.326;2023-06-22T10:27:56;10.68;;;6.57;;
7843;SDS011;3967;48.702;9.326;2023-06-22T10:30:23;6.75;;;4.85;;
7843;SDS011;3967;48.702;9.326;2023-06-22T10:32:50;8.13;;;4.47;;
7843;SDS011;3967;48.702;9.326;2023-06-22T10:35:17;9.77;;;5.15;;
7843;SDS011;3967;48.702;9.326;2023-06-22T10:37:44;8.85;;;4.55;;
7843;SDS011;3967;48.702;9.326;2023-06-22T10:40:15;8.23;;;5.03;;
7843;SDS011;3967;48.702;9.326;2023-06-22T10:42:43;7.45;;;4.88;;
7843;SDS011;3967;48.702;9.326;2023-06-22T10:45:10;7.55;;;4.80;;
7843;SDS011;3967;48.702;9.326;2023-06-22T10:47:37;6.65;;;4.28;;
7843;SDS011;3967;48.702;9.326;2023-06-22T10:50:05;10.07;;;4.35;;
7843;SDS011;3967;48.702;9.326;2023-06-22T10:52:32;7.75;;;4.80;;
7843;SDS011;3967;48.702;9.326;2023-06-22T10:54:59;6.38;;;4.28;;
7843;SDS011;3967;48.702;9.326;2023-06-22T10:57:26;6.80;;;4.13;;
7843;SDS011;3967;48.702;9.326;2023-06-22T10:59:52;9.80;;;4.25;;
7843;SDS011;3967;48.702;9.326;2023-06-22T11:02:19;11.43;;;4.85;;
7843;SDS011;3967;48.702;9.326;2023-06-22T11:04:46;6.05;;;4.40;;
7843;SDS011;3967;48.702;9.326;2023-06-22T11:07:14;9.75;;;4.35;;
7843;SDS011;3967;48.702;9.326;2023-06-22T11:09:44;8.55;;;4.75;;
7843;SDS011;3967;48.702;9.326;2023-06-22T11:12:11;7.60;;;4.22;;
7843;SDS011;3967;48.702;9.326;2023-06-22T11:14:38;10.20;;;5.65;;
7843;SDS011;3967;48.702;9.326;2023-06-22T11:17:05;6.57;;;4.38;;
7843;SDS011;3967;48.702;9.326;2023-06-22T11:19:32;8.55;;;4.15;;
7843;SDS011;3967;48.702;9.326;2023-06-22T11:21:59;8.98;;;4.80;;
7843;SDS011;3967;48.702;9.326;2023-06-22T11:24:26;7.30;;;4.60;;
7843;SDS011;3967;48.702;9.326;2023-06-22T11:26:52;5.80;;;4.10;;
7843;SDS011;3967;48.702;9.326;2023-06-22T11:29:19;8.90;;;4.05;;
7843;SDS011;3967;48.702;9.326;2023-06-22T11:32:02;13.77;;;4.65;;
7843;SDS011;3967;48.702;9.326;2023-06-22T11:34:30;9.35;;;4.40;;
7843;SDS011;3967;48.702;9.326;2023-06-22T11:36:56;7.90;;;4.82;;
7843;SDS011;3967;48.702;9.326;2023-06-22T11:39:23;6.10;;;4.60;;
7843;SDS011;3967;48.702;9.326;2023-06-22T11:42:08;11.07;;;4.07;;
7843;SDS011;3967;48.702;9.326;2023-06-22T11:44:35;11.18;;;4.50;;
7843;SDS011;3967;48.702;9.326;2023-06-22T11:47:02;8.85;;;4.43;;
7843;SDS011;3967;48.702;9.326;2023-06-22T11:49:30;9.48;;;4.47;;
7843;SDS011;3967;48.702;9.326;2023-06-22T11:51:57;8.43;;;4.43;;
7843;SDS011;3967;48.702;9.326;2023-06-22T11:54:24;9.18;;;4.60;;
7843;SDS011;3967;48.702;9.326;2023-06-22T11:56:51;6.93;;;4.25;;
7843;SDS011;3967;48.702;9.326;2023-06-22T11:59:18;8.32;;;4.50;;
7843;SDS011;3967;48.702;9.326;2023-06-22T12:01:45;8.05;;;4.53;;
7843;SDS011;3967;48.702;9.326;2023-06-22T12:04:12;11.95;;;4.10;;
7843;SDS011;3967;48.702;9.326;2023-06-22T12:06:39;9.82;;;4.70;;
7843;SDS011;3967;48.702;9.326;2023-06-22T12:09:08;10.13;;;4.25;;
7843;SDS011;3967;48.702;9.326;2023-06-22T12:11:35;9.02;;;4.07;;
7843;SDS011;3967;48.702;9.326;2023-06-22T12:14:03;14.38;;;5.15;;
7843;SDS011;3967;48.702;9.326;2023-06-22T12:16:30;8.10;;;4.57;;
7843;SDS011;3967;48.702;9.326;2023-06-22T12:18:57;9.45;;;4.05;;
7843;SDS011;3967;48.702;9.326;2023-06-22T12:21:24;8.43;;;4.35;;
7843;SDS011;3967;48.702;9.326;2023-06-22T12:23:50;7.93;;;3.85;;
7843;SDS011;3967;48.702;9.326;2023-06-22T12:26:17;10.63;;;4.53;;
7843;SDS011;3967;48.702;9.326;2023-06-22T12:28:44;7.15;;;3.80;;
7843;SDS011;3967;48.702;9.326;2023-06-22T12:31:11;9.73;;;4.68;;
7843;SDS011;3967;48.702;9.326;2023-06-22T12:33:38;7.78;;;3.88;;
7843;SDS011;3967;48.702;9.326;2023-06-22T12:36:04;7.97;;;4.35;;
7843;SDS011;3967;48.702;9.326;2023-06-22T12:38:31;6.45;;;4.32;;
7843;SDS011;3967;48.702;9.326;2023-06-22T12:40:58;11.40;;;4.72;;
7843;SDS011;3967;48.702;9.326;2023-06-22T12:43:25;10.60;;;3.92;;
7843;SDS011;3967;48.702;9.326;2023-06-22T12:45:51;6.95;;;3.95;;
7843;SDS011;3967;48.702;9.326;2023-06-22T12:48:19;9.98;;;4.70;;
7843;SDS011;3967;48.702;9.326;2023-06-22T12:50:47;17.00;;;4.97;;
7843;SDS011;3967;48.702;9.326;2023-06-22T12:53:14;7.68;;;4.78;;
7843;SDS011;3967;48.702;9.326;2023-06-22T12:55:41;8.88;;;4.82;;
7843;SDS011;3967;48.702;9.326;2023-06-22T12:58:07;13.45;;;3.75;;
7843;SDS011;3967;48.702;9.326;2023-06-22T13:00:34;10.52;;;4.85;;
7843;SDS011;3967;48.702;9.326;2023-06-22T13:03:01;10.63;;;4.50;;
7843;SDS011;3967;48.702;9.326;2023-06-22T13:07:54;12.88;;;4.25;;
7843;SDS011;3967;48.702;9.326;2023-06-22T13:10:21;9.10;;;4.38;;
7843;SDS011;3967;48.702;9.326;2023-06-22T13:12:48;6.35;;;3.67;;
7843;SDS011;3967;48.702;9.326;2023-06-22T13:15:14;10.88;;;4.63;;
7843;SDS011;3967;48.702;9.326;2023-06-22T13:17:41;11.82;;;4.50;;
7843;SDS011;3967;48.702;9.326;2023-06-22T13:20:08;7.85;;;3.78;;
7843;SDS011;3967;48.702;9.326;2023-06-22T13:22:35;7.80;;;4.10;;
7843;SDS011;3967;48.702;9.326;2023-06-22T13:25:10;9.73;;;4.40;;
7843;SDS011;3967;48.702;9.326;2023-06-22T13:27:40;5.82;;;3.78;;
7843;SDS011;3967;48.702;9.326;2023-06-22T13:30:10;8.10;;;3.65;;
7843;SDS011;3967;48.702;9.326;2023-06-22T13:32:40;8.57;;;3.95;;
7843;SDS011;3967;48.702;9.326;2023-06-22T13:35:09;13.73;;;3.88;;
7843;SDS011;3967;48.702;9.326;2023-06-22T13:37:36;5.65;;;3.53;;
7843;SDS011;3967;48.702;9.326;2023-06-22T13:40:03;7.72;;;3.67;;
7843;SDS011;3967;48.702;9.326;2023-06-22T13:42:34;9.95;;;3.85;;
7843;SDS011;3967;48.702;9.326;2023-06-22T13:45:01;9.50;;;4.13;;
7843;SDS011;3967;48.702;9.326;2023-06-22T13:47:29;11.20;;;4.18;;
7843;SDS011;3967;48.702;9.326;2023-06-22T13:49:57;6.30;;;3.97;;
7843;SDS011;3967;48.702;9.326;2023-06-22T13:52:24;7.30;;;3.53;;
7843;SDS011;3967;48.702;9.326;2023-06-22T13:54:51;10.98;;;4.18;;
7843;SDS011;3967;48.702;9.326;2023-06-22T13:57:18;8.25;;;3.45;;
7843;SDS011;3967;48.702;9.326;2023-06-22T13:59:44;11.75;;;4.00;;
7843;SDS011;3967;48.702;9.326;2023-06-22T14:02:11;7.03;;;3.40;;
7843;SDS011;3967;48.702;9.326;2023-06-22T14:04:38;11.88;;;4.47;;
7843;SDS011;3967;48.702;9.326;2023-06-22T14:07:05;8.00;;;3.58;;
7843;SDS011;3967;48.702;9.326;2023-06-22T14:09:32;7.57;;;4.05;;
7843;SDS011;3967;48.702;9.326;2023-06-22T14:12:02;9.50;;;4.38;;
7843;SDS011;3967;48.702;9.326;2023-06-22T14:14:31;6.13;;;3.83;;
7843;SDS011;3967;48.702;9.326;2023-06-22T14:16:59;5.93;;;3.33;;
7843;SDS011;3967;48.702;9.326;2023-06-22T14:19:26;9.88;;;3.80;;
7843;SDS011;3967;48.702;9.326;2023-06-22T14:21:53;6.60;;;3.63;;
7843;SDS011;3967;48.702;9.326;2023-06-22T14:24:20;7.55;;;4.15;;
7843;SDS011;3967;48.702;9.326;2023-06-22T14:26:50;12.05;;;4.55;;
7843;SDS011;3967;48.702;9.326;2023-06-22T14:29:17;8.00;;;4.22;;
7843;SDS011;3967;48.702;9.326;2023-06-22T14:31:45;6.82;;;4.05;;
7843;SDS011;3967;48.702;9.326;2023-06-22T14:34:12;7.88;;;3.58;;
7843;SDS011;3967;48.702;9.326;2023-06-22T14:36:39;7.40;;;3.53;;
7843;SDS011;3967;48.702;9.326;2023-06-22T14:39:07;5.43;;;3.78;;
7843;SDS011;3967;48.702;9.326;2023-06-22T14:41:34;7.72;;;4.47;;
7843;SDS011;3967;48.702;9.326;2023-06-22T14:44:01;8.40;;;4.38;;
7843;SDS011;3967;48.702;9.326;2023-06-22T14:46:28;9.52;;;3.88;;
7843;SDS011;3967;48.702;9.326;2023-06-22T14:48:55;6.05;;;3.58;;
7843;SDS011;3967;48.702;9.326;2023-06-22T14:51:21;11.10;;;4.75;;
7843;SDS011;3967;48.702;9.326;2023-06-22T14:53:48;10.30;;;4.18;;
7843;SDS011;3967;48.702;9.326;2023-06-22T14:56:15;10.13;;;4.28;;
7843;SDS011;3967;48.702;9.326;2023-06-22T14:58:42;8.50;;;4.15;;
7843;SDS011;3967;48.702;9.326;2023-06-22T15:01:13;7.53;;;3.65;;
7843;SDS011;3967;48.702;9.326;2023-06-22T15:03:40;8.95;;;3.63;;
7843;SDS011;3967;48.702;9.326;2023-06-22T15:06:08;10.50;;;3.50;;
7843;SDS011;3967;48.702;9.326;2023-06-22T15:08:39;9.73;;;4.07;;
7843;SDS011;3967;48.702;9.326;2023-06-22T15:11:06;13.48;;;3.40;;
7843;SDS011;3967;48.702;9.326;2023-06-22T15:13:34;9.80;;;3.35;;
7843;SDS011;3967;48.702;9.326;2023-06-22T15:16:01;6.75;;;2.95;;
7843;SDS011;3967;48.702;9.326;2023-06-22T15:18:30;7.07;;;3.15;;
7843;SDS011;3967;48.702;9.326;2023-06-22T15:20:57;10.43;;;2.92;;
7843;SDS011;3967;48.702;9.326;2023-06-22T15:23:25;8.57;;;2.63;;
7843;SDS011;3967;48.702;9.326;2023-06-22T15:25:52;7.90;;;2.60;;
7843;SDS011;3967;48.702;9.326;2023-06-22T15:28:19;12.43;;;4.20;;
7843;SDS011;3967;48.702;9.326;2023-06-22T15:30:48;7.57;;;2.75;;